createdAt,value
2023-02-28T00:01:30.036Z,3.50
2023-02-28T00:03:58.763Z,6.43
2023-02-28T00:06:28.856Z,4.20
2023-02-28T00:08:57.423Z,5.03
2023-02-28T00:11:25.720Z,4.57
2023-02-28T00:13:53.921Z,3.83
2023-02-28T00:16:24.398Z,4.55
2023-02-28T00:18:53.300Z,3.95
2023-02-28T00:21:22.088Z,4.30
2023-02-28T00:23:51.830Z,5.57
2023-02-28T00:26:21.835Z,3.85
2023-02-28T00:28:50.618Z,5.15
2023-02-28T00:31:18.919Z,5.43
2023-02-28T00:33:47.138Z,4.55
2023-02-28T00:36:15.359Z,7.93
2023-02-28T00:38:43.603Z,5.20
2023-02-28T00:41:13.201Z,2.92
2023-02-28T00:43:42.123Z,4.53
2023-02-28T00:46:10.955Z,4.47
2023-02-28T00:48:39.273Z,3.72
2023-02-28T00:51:07.817Z,5.13
2023-02-28T00:53:36.111Z,6.00
2023-02-28T00:56:04.769Z,5.15
2023-02-28T00:58:34.474Z,4.03
2023-02-28T01:01:02.815Z,4.65
2023-02-28T01:03:31.098Z,4.88
2023-02-28T01:05:59.315Z,4.18
2023-02-28T01:08:28.037Z,3.55
2023-02-28T01:10:56.589Z,4.65
2023-02-28T01:13:26.394Z,3.67
2023-02-28T01:15:58.293Z,3.70
2023-02-28T01:18:26.712Z,2.67
2023-02-28T01:20:55.526Z,5.20
2023-02-28T01:23:24.905Z,3.53
2023-02-28T01:25:53.586Z,4.25
2023-02-28T01:28:22.006Z,4.18
2023-02-28T01:30:50.920Z,3.42
2023-02-28T01:33:20.547Z,4.82
2023-02-28T01:35:48.732Z,4.57
2023-02-28T01:38:22.876Z,4.20
2023-02-28T01:40:52.130Z,4.03
2023-02-28T01:43:24.671Z,4.65
2023-02-28T01:45:53.287Z,4.97
2023-02-28T01:48:24.811Z,3.72
2023-02-28T01:50:52.964Z,3.47
2023-02-28T01:53:26.143Z,4.20
2023-02-28T01:55:55.902Z,4.57
2023-02-28T01:58:24.407Z,5.72
2023-02-28T02:00:53.938Z,5.30
2023-02-28T02:03:23.563Z,5.88
2023-02-28T02:05:52.348Z,4.18
2023-02-28T02:08:23.900Z,5.13
2023-02-28T02:10:55.740Z,3.85
2023-02-28T02:13:56.224Z,5.57
2023-02-28T02:16:41.671Z,4.45
2023-02-28T02:19:30.877Z,4.20
2023-02-28T02:22:23.806Z,6.15
2023-02-28T02:25:06.915Z,6.25
2023-02-28T02:27:51.078Z,3.80
2023-02-28T02:30:43.772Z,4.75
2023-02-28T02:33:42.074Z,3.88
2023-02-28T02:36:17.535Z,3.53
2023-02-28T02:38:52.109Z,4.97
2023-02-28T02:41:27.138Z,4.55
2023-02-28T02:44:00.414Z,4.18
2023-02-28T02:46:31.980Z,3.92
2023-02-28T02:49:02.831Z,3.65
2023-02-28T02:51:34.899Z,3.97
2023-02-28T02:54:07.917Z,4.18
2023-02-28T02:56:38.194Z,4.82
2023-02-28T02:59:10.994Z,4.03
2023-02-28T03:01:41.552Z,5.15
2023-02-28T03:04:12.908Z,4.28
2023-02-28T03:06:42.529Z,3.55
2023-02-28T03:09:10.922Z,5.40
2023-02-28T03:11:41.863Z,4.50
2023-02-28T03:14:28.187Z,4.10
2023-02-28T03:17:10.318Z,4.60
2023-02-28T03:22:40.077Z,4.25
2023-02-28T03:25:16.091Z,4.82
2023-02-28T03:27:49.809Z,6.30
2023-02-28T03:30:25.833Z,4.00
2023-02-28T03:32:59.369Z,4.82
2023-02-28T03:35:32.050Z,4.50
2023-02-28T03:38:08.790Z,4.00
2023-02-28T03:40:41.088Z,4.53
2023-02-28T03:43:15.021Z,6.57
2023-02-28T03:45:45.265Z,5.15
2023-02-28T03:48:17.697Z,4.35
2023-02-28T03:50:47.906Z,4.95
2023-02-28T03:53:21.486Z,6.85
2023-02-28T03:55:53.635Z,4.97
2023-02-28T03:58:29.135Z,4.65
2023-02-28T04:01:08.580Z,4.45
2023-02-28T04:03:37.951Z,4.20
2023-02-28T04:06:08.094Z,4.68
2023-02-28T04:08:37.639Z,7.10
2023-02-28T04:11:14.745Z,4.18
2023-02-28T04:13:42.944Z,3.83
2023-02-28T04:16:18.785Z,5.15
2023-02-28T04:18:49.786Z,6.10
2023-02-28T04:21:21.624Z,4.28
2023-02-28T04:23:51.155Z,5.57
2023-02-28T04:26:19.353Z,4.03
2023-02-28T04:28:47.570Z,5.03
2023-02-28T04:31:15.720Z,5.38
2023-02-28T04:33:43.952Z,5.30
2023-02-28T04:36:12.112Z,10.05
2023-02-28T04:38:41.299Z,5.25
2023-02-28T04:41:10.830Z,4.63
2023-02-28T04:43:39.193Z,4.88
2023-02-28T04:46:08.268Z,4.78
2023-02-28T04:48:38.531Z,4.85
2023-02-28T04:51:08.284Z,4.32
2023-02-28T04:53:36.958Z,4.80
2023-02-28T04:56:05.976Z,3.88
2023-02-28T04:58:36.309Z,5.05
2023-02-28T05:01:13.554Z,5.30
2023-02-28T05:03:42.484Z,4.68
2023-02-28T05:06:10.951Z,5.63
2023-02-28T05:08:39.487Z,3.95
2023-02-28T05:11:14.655Z,5.60
2023-02-28T05:13:44.263Z,4.47
2023-02-28T05:16:12.612Z,4.68
2023-02-28T05:18:40.938Z,3.92
2023-02-28T05:21:26.214Z,7.78
2023-02-28T05:23:54.607Z,4.97
2023-02-28T05:26:22.852Z,4.93
2023-02-28T05:28:52.448Z,4.22
2023-02-28T05:31:20.714Z,5.15
2023-02-28T05:33:49.157Z,4.47
2023-02-28T05:36:17.440Z,5.30
2023-02-28T05:38:47.948Z,4.07
2023-02-28T05:41:16.835Z,3.53
2023-02-28T05:43:45.007Z,5.72
2023-02-28T05:46:15.108Z,5.07
2023-02-28T05:48:44.180Z,7.30
2023-02-28T05:51:12.382Z,4.13
2023-02-28T05:53:40.576Z,4.82
2023-02-28T05:56:09.060Z,4.47
2023-02-28T05:58:37.443Z,3.92
2023-02-28T06:01:26.241Z,5.25
2023-02-28T06:03:54.510Z,6.82
2023-02-28T06:06:25.697Z,5.45
2023-02-28T06:08:54.473Z,6.60
2023-02-28T06:11:22.631Z,4.20
2023-02-28T06:13:50.774Z,4.72
2023-02-28T06:16:19.086Z,6.80
2023-02-28T06:18:48.623Z,3.97
2023-02-28T06:21:16.765Z,5.25
2023-02-28T06:23:45.021Z,4.45
2023-02-28T06:26:13.445Z,4.47
2023-02-28T06:28:41.984Z,4.72
2023-02-28T06:31:11.229Z,4.72
2023-02-28T06:33:40.333Z,8.20
2023-02-28T06:36:11.885Z,5.45
2023-02-28T06:38:40.363Z,6.00
2023-02-28T06:41:09.141Z,4.22
2023-02-28T06:43:39.303Z,8.77
2023-02-28T06:46:09.836Z,4.80
2023-02-28T06:48:40.309Z,4.90
2023-02-28T06:51:11.362Z,6.40
2023-02-28T06:53:40.195Z,4.47
2023-02-28T06:56:11.700Z,6.07
2023-02-28T06:58:40.207Z,5.35
2023-02-28T07:01:08.757Z,5.15
2023-02-28T07:03:38.187Z,6.20
2023-02-28T07:06:09.163Z,4.35
2023-02-28T07:08:38.060Z,6.72
2023-02-28T07:11:06.814Z,5.20
2023-02-28T07:13:35.005Z,5.13
2023-02-28T07:16:04.907Z,4.38
2023-02-28T07:18:33.862Z,3.90
2023-02-28T07:21:04.699Z,4.05
2023-02-28T07:23:34.303Z,4.30
2023-02-28T07:26:02.492Z,4.25
2023-02-28T07:28:30.744Z,5.20
2023-02-28T07:30:58.957Z,5.32
2023-02-28T07:33:27.123Z,4.90
2023-02-28T07:36:02.872Z,5.93
2023-02-28T07:38:31.060Z,3.80
2023-02-28T07:41:00.633Z,6.63
2023-02-28T07:43:28.785Z,5.32
2023-02-28T07:45:57.082Z,4.95
2023-02-28T07:48:25.237Z,4.07
2023-02-28T07:50:57.587Z,5.72
2023-02-28T07:53:25.773Z,4.85
2023-02-28T07:55:56.982Z,4.32
2023-02-28T07:58:27.994Z,4.38
2023-02-28T08:00:56.374Z,4.17
2023-02-28T08:03:25.778Z,4.68
2023-02-28T08:05:54.620Z,5.30
2023-02-28T08:08:22.817Z,4.00
2023-02-28T08:10:50.984Z,5.88
2023-02-28T08:13:19.146Z,5.55
2023-02-28T08:15:48.740Z,4.78
2023-02-28T08:18:16.893Z,7.25
2023-02-28T08:20:45.089Z,4.82
2023-02-28T08:23:13.243Z,4.18
2023-02-28T08:25:41.424Z,3.72
2023-02-28T08:28:09.583Z,6.00
2023-02-28T08:30:37.740Z,2.55
2023-02-28T08:33:07.332Z,3.28
2023-02-28T08:35:38.228Z,4.30
2023-02-28T08:38:06.446Z,4.03
2023-02-28T08:40:34.592Z,2.33
2023-02-28T08:43:02.759Z,3.40
2023-02-28T08:45:30.946Z,6.57
2023-02-28T08:47:59.109Z,4.35
2023-02-28T08:50:28.687Z,3.63
2023-02-28T08:52:56.840Z,3.75
2023-02-28T08:55:25.037Z,5.18
2023-02-28T08:57:53.401Z,5.05
2023-02-28T09:00:22.852Z,4.22
2023-02-28T09:02:51.000Z,5.07
2023-02-28T09:05:19.274Z,3.40
2023-02-28T09:07:48.956Z,5.68
2023-02-28T09:10:17.260Z,2.83
2023-02-28T09:12:47.630Z,5.10
2023-02-28T09:15:15.790Z,2.60
2023-02-28T09:17:46.750Z,2.78
2023-02-28T09:20:15.205Z,4.10
2023-02-28T09:22:45.173Z,2.75
2023-02-28T09:25:14.710Z,2.75
2023-02-28T09:27:43.186Z,3.78
2023-02-28T09:30:12.811Z,4.35
2023-02-28T09:32:40.986Z,3.00
2023-02-28T09:35:14.222Z,4.10
2023-02-28T09:37:42.429Z,5.15
2023-02-28T09:40:13.156Z,6.43
2023-02-28T09:42:42.986Z,6.28
2023-02-28T09:45:21.927Z,4.10
2023-02-28T09:47:53.096Z,5.53
2023-02-28T09:50:33.948Z,2.50
2023-02-28T09:53:06.148Z,4.32
2023-02-28T09:55:46.535Z,3.90
2023-02-28T09:58:23.140Z,3.75
2023-02-28T10:01:00.141Z,3.70
2023-02-28T10:03:32.687Z,3.05
2023-02-28T10:06:07.195Z,4.82
2023-02-28T10:08:43.688Z,2.75
2023-02-28T10:11:14.785Z,3.22
2023-02-28T10:13:53.536Z,3.93
2023-02-28T10:16:27.750Z,4.50
2023-02-28T10:19:01.292Z,5.05
2023-02-28T10:21:35.963Z,3.38
2023-02-28T10:24:21.453Z,4.18
2023-02-28T10:26:50.718Z,5.13
2023-02-28T10:29:20.243Z,4.55
2023-02-28T10:31:48.678Z,5.13
2023-02-28T10:34:16.885Z,5.57
2023-02-28T10:36:45.842Z,3.85
2023-02-28T10:39:43.028Z,4.38
2023-02-28T10:42:27.611Z,3.85
2023-02-28T10:45:16.014Z,4.47
2023-02-28T10:47:55.143Z,5.65
2023-02-28T10:50:48.266Z,5.32
2023-02-28T10:53:44.729Z,4.38
2023-02-28T10:56:22.222Z,4.20
2023-02-28T10:58:54.098Z,4.28
2023-02-28T11:01:25.245Z,5.35
2023-02-28T11:03:54.762Z,5.40
2023-02-28T11:06:25.486Z,4.55
2023-02-28T11:08:55.970Z,5.10
2023-02-28T11:11:29.296Z,9.77
2023-02-28T11:14:04.919Z,4.97
2023-02-28T11:16:38.501Z,4.80
2023-02-28T11:19:08.907Z,6.30
2023-02-28T11:21:41.126Z,5.50
2023-02-28T11:24:24.503Z,5.60
2023-02-28T11:26:52.773Z,4.63
2023-02-28T11:29:22.849Z,4.10
2023-02-28T11:32:15.554Z,6.40
2023-02-28T11:34:45.195Z,6.00
2023-02-28T11:37:16.939Z,4.93
2023-02-28T11:39:45.806Z,3.80
2023-02-28T11:42:33.652Z,4.38
2023-02-28T11:45:16.893Z,4.35
2023-02-28T11:47:50.872Z,6.72
2023-02-28T11:50:28.824Z,5.18
2023-02-28T11:52:59.068Z,3.85
2023-02-28T11:55:29.869Z,5.95
2023-02-28T11:58:28.547Z,5.97
2023-02-28T12:01:09.495Z,5.95
2023-02-28T12:03:47.378Z,6.13
2023-02-28T12:06:26.629Z,5.07
2023-02-28T12:09:07.324Z,4.97
2023-02-28T12:11:48.398Z,6.03
2023-02-28T12:14:40.283Z,7.13
2023-02-28T12:17:21.299Z,5.32
2023-02-28T12:20:01.497Z,4.75
2023-02-28T12:22:34.189Z,5.20
2023-02-28T12:25:29.524Z,4.63
2023-02-28T12:27:57.735Z,4.95
2023-02-28T12:30:29.594Z,3.83
2023-02-28T12:33:03.536Z,4.93
2023-02-28T12:35:37.006Z,5.72
2023-02-28T12:38:10.945Z,6.63
2023-02-28T12:40:47.158Z,6.45
2023-02-28T12:43:17.965Z,3.83
2023-02-28T12:45:50.628Z,6.32
2023-02-28T12:48:25.897Z,5.50
2023-02-28T12:50:56.161Z,4.78
2023-02-28T12:53:30.086Z,5.38
2023-02-28T12:56:09.637Z,7.00
2023-02-28T12:58:42.242Z,4.20
2023-02-28T13:01:35.447Z,4.45
2023-02-28T13:04:28.526Z,4.85
2023-02-28T13:07:14.963Z,5.88
2023-02-28T13:09:53.336Z,5.50
2023-02-28T13:12:23.824Z,4.85
2023-02-28T13:14:52.889Z,4.35
2023-02-28T13:17:22.537Z,5.82
2023-02-28T13:20:00.087Z,4.50
2023-02-28T13:22:45.197Z,5.95
2023-02-28T13:25:54.447Z,5.00
2023-02-28T13:29:08.080Z,4.43
2023-02-28T13:32:09.523Z,7.00
2023-02-28T13:34:40.236Z,4.85
2023-02-28T13:37:38.506Z,5.28
2023-02-28T13:40:38.125Z,6.95
2023-02-28T13:43:10.958Z,5.00
2023-02-28T13:45:40.749Z,5.88
2023-02-28T13:48:20.062Z,5.38
2023-02-28T13:50:48.424Z,8.23
2023-02-28T13:53:50.541Z,6.72
2023-02-28T13:58:59.563Z,5.18
2023-02-28T14:04:28.419Z,6.60
2023-02-28T14:06:58.234Z,5.35
2023-02-28T14:09:29.369Z,4.97
2023-02-28T14:11:59.812Z,5.18
2023-02-28T14:14:56.999Z,5.50
2023-02-28T14:17:26.525Z,5.15
2023-02-28T14:19:54.915Z,6.90
2023-02-28T14:22:54.497Z,6.80
2023-02-28T14:25:32.626Z,5.53
2023-02-28T14:28:13.179Z,5.25
2023-02-28T14:31:02.532Z,5.00
2023-02-28T14:33:41.703Z,6.43
2023-02-28T14:36:16.735Z,6.63
2023-02-28T14:38:49.276Z,5.57
2023-02-28T14:41:24.864Z,6.78
2023-02-28T14:43:59.986Z,4.65
2023-02-28T14:46:32.611Z,6.22
2023-02-28T14:49:01.212Z,6.60
2023-02-28T14:51:29.554Z,5.93
2023-02-28T14:54:01.060Z,5.32
2023-02-28T14:56:35.037Z,6.53
2023-02-28T14:59:04.719Z,6.90
2023-02-28T15:01:34.558Z,4.28
2023-02-28T15:04:04.923Z,7.28
2023-02-28T15:06:34.546Z,8.95
2023-02-28T15:09:11.155Z,10.18
2023-02-28T15:11:41.024Z,6.45
2023-02-28T15:14:19.165Z,5.97
2023-02-28T15:16:51.650Z,5.35
2023-02-28T15:19:26.106Z,4.65
2023-02-28T15:21:59.820Z,5.43
2023-02-28T15:24:38.390Z,6.00
2023-02-28T15:27:09.672Z,4.47
2023-02-28T15:29:48.541Z,7.18
2023-02-28T15:32:27.982Z,4.68
2023-02-28T15:34:57.360Z,5.93
2023-02-28T15:37:40.334Z,4.63
2023-02-28T15:40:17.447Z,5.85
2023-02-28T15:43:00.668Z,6.50
2023-02-28T15:45:36.010Z,4.65
2023-02-28T15:48:13.638Z,5.55
2023-02-28T15:50:43.067Z,6.20
2023-02-28T15:53:20.001Z,6.15
2023-02-28T15:55:56.701Z,4.93
2023-02-28T15:58:26.365Z,6.05
2023-02-28T16:01:09.201Z,4.78
2023-02-28T16:03:43.696Z,8.60
2023-02-28T16:06:35.190Z,4.90
2023-02-28T16:09:03.814Z,6.00
2023-02-28T16:11:33.145Z,4.70
2023-02-28T16:14:01.390Z,4.03
2023-02-28T16:16:31.132Z,7.45
2023-02-28T16:18:59.326Z,6.03
2023-02-28T16:21:28.562Z,5.35
2023-02-28T16:23:56.863Z,6.80
2023-02-28T16:26:28.418Z,7.63
2023-02-28T16:28:57.196Z,9.98
2023-02-28T16:31:25.361Z,6.47
2023-02-28T16:33:55.478Z,4.80
2023-02-28T16:36:26.949Z,6.77
2023-02-28T16:38:57.335Z,5.78
2023-02-28T16:41:28.648Z,5.22
2023-02-28T16:43:59.809Z,7.38
2023-02-28T16:46:32.532Z,5.35
2023-02-28T16:49:02.120Z,4.38
2023-02-28T16:51:32.289Z,5.22
2023-02-28T16:54:01.633Z,7.35
2023-02-28T16:56:29.794Z,5.57
2023-02-28T16:59:01.771Z,6.20
2023-02-28T17:03:58.703Z,5.63
2023-02-28T17:06:30.868Z,7.18
2023-02-28T17:09:00.183Z,5.18
2023-02-28T17:11:28.731Z,5.05
2023-02-28T17:13:57.078Z,6.43
2023-02-28T17:16:30.320Z,7.13
2023-02-28T17:19:01.947Z,6.63
2023-02-28T17:21:32.651Z,6.70
2023-02-28T17:24:01.206Z,5.43
2023-02-28T17:26:30.108Z,5.78
2023-02-28T17:28:59.266Z,5.43
2023-02-28T17:31:28.466Z,5.13
2023-02-28T17:33:56.941Z,7.35
2023-02-28T17:36:26.834Z,7.25
2023-02-28T17:38:57.094Z,6.32
2023-02-28T17:41:25.357Z,7.70
2023-02-28T17:43:53.572Z,7.20
2023-02-28T17:46:23.526Z,6.63
2023-02-28T17:48:52.470Z,6.70
2023-02-28T17:51:22.361Z,7.00
2023-02-28T17:53:50.527Z,6.47
2023-02-28T17:56:22.333Z,5.15
2023-02-28T17:58:51.080Z,7.30
2023-02-28T18:01:19.518Z,7.25
2023-02-28T18:03:48.342Z,6.38
2023-02-28T18:06:19.534Z,6.43
2023-02-28T18:08:47.798Z,9.20
2023-02-28T18:11:22.063Z,5.90
2023-02-28T18:13:53.554Z,5.65
2023-02-28T18:16:22.998Z,7.28
2023-02-28T18:18:51.221Z,6.93
2023-02-28T18:21:19.668Z,9.88
2023-02-28T18:23:52.059Z,7.57
2023-02-28T18:26:21.088Z,9.40
2023-02-28T18:28:49.610Z,7.68
2023-02-28T18:31:20.854Z,6.75
2023-02-28T18:33:51.330Z,6.53
2023-02-28T18:36:20.775Z,7.43
2023-02-28T18:38:50.484Z,7.85
2023-02-28T18:41:21.519Z,7.97
2023-02-28T18:43:53.169Z,4.73
2023-02-28T18:46:23.453Z,6.00
2023-02-28T18:48:51.615Z,6.63
2023-02-28T18:51:22.155Z,9.38
2023-02-28T18:53:50.510Z,8.73
2023-02-28T18:56:20.352Z,7.53
2023-02-28T18:58:48.684Z,8.80
2023-02-28T19:01:18.732Z,8.05
2023-02-28T19:03:49.625Z,9.32
2023-02-28T19:06:18.791Z,7.60
2023-02-28T19:08:47.404Z,7.95
2023-02-28T19:11:17.721Z,11.98
2023-02-28T19:13:46.864Z,8.15
2023-02-28T19:16:17.393Z,7.75
2023-02-28T19:18:47.095Z,8.25
2023-02-28T19:21:17.244Z,7.55
2023-02-28T19:23:45.534Z,8.15
2023-02-28T19:26:15.766Z,10.88
2023-02-28T19:28:44.274Z,7.53
2023-02-28T19:31:15.043Z,13.38
2023-02-28T19:33:43.702Z,9.73
2023-02-28T19:36:14.189Z,10.75
2023-02-28T19:38:44.491Z,10.32
2023-02-28T19:41:13.988Z,8.35
2023-02-28T19:43:42.277Z,8.02
2023-02-28T19:46:12.037Z,9.60
2023-02-28T19:48:42.420Z,7.97
2023-02-28T19:51:13.563Z,8.77
2023-02-28T19:53:42.890Z,10.05
2023-02-28T19:56:11.675Z,12.68
2023-02-28T19:58:40.494Z,9.68
2023-02-28T20:01:10.540Z,11.35
2023-02-28T20:03:38.995Z,9.15
2023-02-28T20:06:09.840Z,8.77
2023-02-28T20:08:39.766Z,8.02
2023-02-28T20:11:10.256Z,9.30
2023-02-28T20:13:38.888Z,8.45
2023-02-28T20:16:10.666Z,11.02
2023-02-28T20:18:41.820Z,8.65
2023-02-28T20:21:10.656Z,8.55
2023-02-28T20:23:40.743Z,8.70
2023-02-28T20:26:09.987Z,8.00
2023-02-28T20:28:38.476Z,9.07
2023-02-28T20:31:13.932Z,8.65
2023-02-28T20:33:43.867Z,7.30
2023-02-28T20:36:13.529Z,8.60
2023-02-28T20:38:43.557Z,7.80
2023-02-28T20:41:11.921Z,9.00
2023-02-28T20:43:40.719Z,8.02
2023-02-28T20:46:09.232Z,10.90
2023-02-28T20:48:38.404Z,8.57
2023-02-28T20:51:07.895Z,9.75
2023-02-28T20:53:37.259Z,12.00
2023-02-28T20:56:09.017Z,9.13
2023-02-28T20:58:38.733Z,8.95
2023-02-28T21:01:12.725Z,7.15
2023-02-28T21:03:41.165Z,10.63
2023-02-28T21:06:09.722Z,10.88
2023-02-28T21:08:39.233Z,10.98
2023-02-28T21:11:14.130Z,10.07
2023-02-28T21:13:43.442Z,9.10
2023-02-28T21:16:14.563Z,9.98
2023-02-28T21:18:43.209Z,11.73
2023-02-28T21:21:14.097Z,13.65
2023-02-28T21:23:42.649Z,9.82
2023-02-28T21:26:14.159Z,15.32
2023-02-28T21:28:44.286Z,12.73
2023-02-28T21:31:15.746Z,22.50
2023-02-28T21:33:44.547Z,31.67
2023-02-28T21:36:14.846Z,20.15
2023-02-28T21:38:44.662Z,24.15
2023-02-28T21:41:15.475Z,19.73
2023-02-28T21:43:44.654Z,16.25
2023-02-28T21:46:14.440Z,11.55
2023-02-28T21:48:42.957Z,10.70
2023-02-28T21:51:14.226Z,11.82
2023-02-28T21:53:43.221Z,11.43
2023-02-28T21:56:17.797Z,11.80
2023-02-28T21:58:46.048Z,11.90
2023-02-28T22:01:16.814Z,9.43
2023-02-28T22:03:46.466Z,10.50
2023-02-28T22:06:16.729Z,12.68
2023-02-28T22:08:46.161Z,9.77
2023-02-28T22:11:15.598Z,12.00
2023-02-28T22:13:45.794Z,11.45
2023-02-28T22:16:15.794Z,10.45
2023-02-28T22:18:44.586Z,9.02
2023-02-28T22:21:14.182Z,14.20
2023-02-28T22:23:44.521Z,11.55
2023-02-28T22:26:16.672Z,12.48
2023-02-28T22:28:46.558Z,10.05
2023-02-28T22:31:18.596Z,10.43
2023-02-28T22:33:47.361Z,10.95
2023-02-28T22:36:17.390Z,10.45
2023-02-28T22:38:46.575Z,12.82
2023-02-28T22:41:15.110Z,10.50
2023-02-28T22:43:45.418Z,11.13
2023-02-28T22:46:14.834Z,12.35
2023-02-28T22:48:43.049Z,12.52
2023-02-28T22:51:14.739Z,14.25
2023-02-28T22:53:44.170Z,12.60
2023-02-28T22:56:14.211Z,12.52
2023-02-28T22:58:44.305Z,10.55
2023-02-28T23:01:16.773Z,11.55
2023-02-28T23:03:45.226Z,15.43
2023-02-28T23:06:15.324Z,10.23
2023-02-28T23:08:43.990Z,10.70
2023-02-28T23:11:17.814Z,9.93
2023-02-28T23:13:58.183Z,10.63
2023-02-28T23:16:30.024Z,11.52
2023-02-28T23:18:59.550Z,10.85
2023-02-28T23:21:28.682Z,10.32
2023-02-28T23:23:56.978Z,12.35
2023-02-28T23:26:25.427Z,13.25
2023-02-28T23:28:54.211Z,10.98
2023-02-28T23:31:22.973Z,11.70
2023-02-28T23:33:52.549Z,11.60
2023-02-28T23:36:21.054Z,12.65
2023-02-28T23:38:51.233Z,12.35
2023-02-28T23:41:20.842Z,12.18
2023-02-28T23:43:49.151Z,12.15
2023-02-28T23:46:18.034Z,11.82
2023-02-28T23:48:46.446Z,15.68
2023-02-28T23:51:17.754Z,11.77
2023-02-28T23:53:47.927Z,14.40
2023-02-28T23:56:18.673Z,13.13
2023-02-28T23:58:48.004Z,11.48
